Time;durP1;ratioP1;P1;durP2;ratioP2;P2;SDS_P1;SDS_P2;PMS_P1;PMS_P2;Temp;Humidity;BMP_temperature;BMP_pressure;BME280_temperature;BME280_humidity;BME280_pressure;Samples;Min_cycle;Max_cycle;Signal;HPM_P1;HPM_P2
2022/07/07 00:02:12;;;;;;;2.83;2.50;;;16.40;68.70;;;;;;5119508;28;20181;-47
2022/07/07 00:04:37;;;;;;;3.93;2.53;;;16.40;69.20;;;;;;5119376;28;20192;-46
2022/07/07 00:07:03;;;;;;;3.27;2.50;;;16.40;69.90;;;;;;5120190;28;20254;-43
2022/07/07 00:09:30;;;;;;;3.67;2.93;;;16.40;70.50;;;;;;5119635;28;20255;-45
2022/07/07 00:11:56;;;;;;;3.17;2.87;;;16.30;70.80;;;;;;5101427;28;20436;-44
2022/07/07 00:14:21;;;;;;;2.93;2.70;;;16.30;71.10;;;;;;5118920;28;20467;-46
2022/07/07 00:16:47;;;;;;;4.33;2.93;;;16.30;71.60;;;;;;5119323;28;20428;-48
2022/07/07 00:19:13;;;;;;;6.70;2.87;;;16.30;72.00;;;;;;5119779;28;20569;-45
2022/07/07 00:21:38;;;;;;;3.00;2.60;;;16.30;72.40;;;;;;5119308;28;20178;-47
2022/07/07 00:24:04;;;;;;;6.53;2.60;;;16.30;72.50;;;;;;5119876;28;20188;-46
2022/07/07 00:26:31;;;;;;;3.20;2.70;;;16.30;72.60;;;;;;5101766;28;20237;-44
2022/07/07 00:28:57;;;;;;;3.20;2.33;;;16.30;73.10;;;;;;5119296;28;20459;-46
2022/07/07 00:31:22;;;;;;;4.07;2.53;;;16.30;73.30;;;;;;5119021;28;20866;-45
2022/07/07 00:33:48;;;;;;;2.80;2.60;;;16.30;73.60;;;;;;5118569;28;20217;-44
2022/07/07 00:36:13;;;;;;;4.60;3.00;;;16.30;73.60;;;;;;5118466;28;20245;-43
2022/07/07 00:38:40;;;;;;;3.27;2.70;;;16.20;73.80;;;;;;5118095;28;20176;-47
2022/07/07 00:41:07;;;;;;;4.03;3.00;;;16.20;74.00;;;;;;5118630;28;20216;-43
2022/07/07 00:43:41;;;;;;;3.50;3.20;;;16.30;74.50;;;;;;5118672;28;20418;-45
2022/07/07 00:46:07;;;;;;;3.00;2.70;;;16.20;74.70;;;;;;5100414;28;20183;-43
2022/07/07 00:48:35;;;;;;;3.73;2.70;;;16.20;75.00;;;;;;5116529;28;20427;-44
2022/07/07 00:51:03;;;;;;;3.63;2.80;;;16.20;75.60;;;;;;5117405;28;21061;-44
2022/07/07 00:53:29;;;;;;;2.93;2.60;;;16.20;75.80;;;;;;5117397;28;20487;-46
2022/07/07 00:55:54;;;;;;;3.67;3.10;;;16.20;76.00;;;;;;5117103;28;20469;-42
2022/07/07 00:58:20;;;;;;;5.40;3.60;;;16.10;76.20;;;;;;5117883;28;20192;-47
2022/07/07 01:00:46;;;;;;;3.70;2.83;;;16.20;76.60;;;;;;5118378;28;20301;-43
2022/07/07 01:03:13;;;;;;;4.90;3.37;;;16.10;76.60;;;;;;5100142;28;20553;-45
2022/07/07 01:05:39;;;;;;;3.23;2.40;;;16.20;76.90;;;;;;5118134;28;20859;-43
2022/07/07 01:08:04;;;;;;;4.20;2.67;;;16.20;77.10;;;;;;5099755;28;20479;-44
2022/07/07 01:10:31;;;;;;;3.87;3.00;;;16.20;77.30;;;;;;5117927;28;20430;-43
2022/07/07 01:13:02;;;;;;;5.80;3.10;;;16.20;76.80;;;;;;5118374;28;20437;-45
2022/07/07 01:15:27;;;;;;;2.77;2.57;;;16.20;76.20;;;;;;5118335;28;20464;-42
2022/07/07 01:17:53;;;;;;;3.97;2.63;;;16.10;76.60;;;;;;5117569;28;20438;-44
2022/07/07 01:20:20;;;;;;;11.80;3.23;;;16.10;77.20;;;;;;5117935;28;20529;-44
2022/07/07 01:22:54;;;;;;;2.80;2.60;;;16.10;77.70;;;;;;5118089;28;20197;-44
2022/07/07 01:25:20;;;;;;;3.27;2.40;;;16.10;77.80;;;;;;5118307;28;20416;-44
2022/07/07 01:27:46;;;;;;;3.50;3.20;;;16.10;78.10;;;;;;5117983;28;20475;-45
2022/07/07 01:30:12;;;;;;;3.73;2.70;;;16.20;78.30;;;;;;5118123;28;20518;-44
2022/07/07 01:32:38;;;;;;;3.20;2.90;;;16.20;78.40;;;;;;5117977;28;20803;-42
2022/07/07 01:35:05;;;;;;;2.50;2.30;;;16.20;78.40;;;;;;5100187;28;20703;-43
2022/07/07 01:37:33;;;;;;;3.23;2.63;;;16.20;78.40;;;;;;5118107;28;20188;-44
2022/07/07 01:39:59;;;;;;;3.50;3.20;;;16.30;78.40;;;;;;5099878;28;20633;-46
2022/07/07 01:42:25;;;;;;;3.47;3.03;;;16.30;78.30;;;;;;5117176;28;20418;-42
2022/07/07 01:44:51;;;;;;;2.83;2.60;;;16.30;78.00;;;;;;5117823;28;20191;-43
2022/07/07 01:47:19;;;;;;;2.30;2.10;;;16.20;78.10;;;;;;5117718;28;20505;-45
2022/07/07 01:49:44;;;;;;;2.80;2.40;;;16.20;78.20;;;;;;5118233;28;20432;-44
2022/07/07 01:52:10;;;;;;;3.40;2.37;;;16.20;78.00;;;;;;5121261;28;20419;-46
2022/07/07 01:54:37;;;;;;;2.53;2.17;;;16.20;78.30;;;;;;5121541;28;20295;-43
2022/07/07 01:57:03;;;;;;;3.23;2.50;;;16.20;78.40;;;;;;5121881;28;20192;-45
2022/07/07 01:59:29;;;;;;;3.83;2.30;;;16.20;78.50;;;;;;5104115;28;20464;-44
2022/07/07 02:01:54;;;;;;;2.97;2.70;;;16.20;78.40;;;;;;5121552;28;20790;-44
2022/07/07 02:04:20;;;;;;;2.23;2.03;;;16.20;78.40;;;;;;5122064;28;20190;-44
2022/07/07 02:06:45;;;;;;;5.03;2.50;;;16.20;78.30;;;;;;5122076;28;20281;-44
2022/07/07 02:09:11;;;;;;;3.07;2.77;;;16.20;78.30;;;;;;5120926;28;20197;-43
2022/07/07 02:11:37;;;;;;;3.67;1.73;;;16.20;78.20;;;;;;5121457;28;20189;-44
2022/07/07 02:14:04;;;;;;;2.37;1.90;;;16.20;78.20;;;;;;5120940;28;20200;-44
2022/07/07 02:16:30;;;;;;;2.73;2.07;;;16.30;78.40;;;;;;5120385;28;20437;-43
2022/07/07 02:19:00;;;;;;;3.03;2.27;;;16.30;78.50;;;;;;5121118;28;20470;-43
2022/07/07 02:21:26;;;;;;;1.97;1.77;;;16.30;78.40;;;;;;5120615;28;20285;-44
2022/07/07 02:23:53;;;;;;;2.30;2.10;;;16.30;78.30;;;;;;5121170;28;20447;-45
2022/07/07 02:26:19;;;;;;;2.57;2.07;;;16.30;78.10;;;;;;5112218;27;20180;-43
2022/07/07 02:28:45;;;;;;;2.00;1.80;;;16.30;78.20;;;;;;5141326;27;20434;-45
2022/07/07 02:31:11;;;;;;;3.30;2.27;;;16.30;78.00;;;;;;5141038;27;20196;-46
2022/07/07 02:33:37;;;;;;;2.93;2.03;;;16.30;77.90;;;;;;5141512;27;20515;-44
2022/07/07 02:36:04;;;;;;;4.20;2.07;;;16.30;77.80;;;;;;5141118;27;20475;-45
2022/07/07 02:38:29;;;;;;;2.70;1.97;;;16.30;78.10;;;;;;5141672;27;20438;-44
2022/07/07 02:40:55;;;;;;;2.30;1.93;;;16.30;78.20;;;;;;5140259;27;20433;-42
2022/07/07 02:43:22;;;;;;;3.17;2.27;;;16.30;78.10;;;;;;5140201;27;20795;-44
2022/07/07 02:45:48;;;;;;;2.40;2.20;;;16.30;77.80;;;;;;5122913;27;20710;-43
2022/07/07 02:48:22;;;;;;;2.93;2.30;;;16.30;76.50;;;;;;5141182;27;20464;-47
2022/07/07 02:50:48;;;;;;;2.10;1.87;;;16.20;76.20;;;;;;5141487;27;20428;-43
2022/07/07 02:53:15;;;;;;;2.53;2.07;;;16.20;77.20;;;;;;5123354;27;20430;-46
2022/07/07 02:55:41;;;;;;;2.47;2.17;;;16.10;77.40;;;;;;5141396;27;20742;-46
2022/07/07 02:58:08;;;;;;;2.50;2.03;;;16.10;77.40;;;;;;5140324;27;20472;-44
2022/07/07 03:00:34;;;;;;;2.20;2.00;;;16.10;76.90;;;;;;5139749;27;20424;-44
2022/07/07 03:03:01;;;;;;;2.60;2.30;;;16.10;77.20;;;;;;5139730;27;20680;-45
2022/07/07 03:05:26;;;;;;;2.60;2.30;;;16.10;77.50;;;;;;5139941;27;20747;-45
2022/07/07 03:07:52;;;;;;;2.83;1.90;;;16.20;77.30;;;;;;5139696;27;20460;-43
2022/07/07 03:10:18;;;;;;;3.67;2.53;;;16.20;77.30;;;;;;5140158;27;20423;-43
2022/07/07 03:12:44;;;;;;;2.67;2.20;;;16.20;77.50;;;;;;5138890;27;20257;-44
2022/07/07 03:15:10;;;;;;;3.03;2.20;;;16.20;77.00;;;;;;5140705;27;20967;-44
2022/07/07 03:17:36;;;;;;;4.80;1.97;;;16.20;77.00;;;;;;5140344;27;20259;-45
2022/07/07 03:20:03;;;;;;;2.33;2.13;;;16.20;77.10;;;;;;5139995;27;20470;-47
2022/07/07 03:22:29;;;;;;;3.53;2.07;;;16.30;77.10;;;;;;5140519;27;20668;-44
2022/07/07 03:24:54;;;;;;;2.90;2.50;;;16.30;77.10;;;;;;5140750;27;20433;-45
2022/07/07 03:27:20;;;;;;;2.30;1.93;;;16.30;76.50;;;;;;5140563;27;20253;-45
2022/07/07 03:29:45;;;;;;;2.70;2.07;;;16.30;76.60;;;;;;5140067;27;20218;-45
2022/07/07 03:32:11;;;;;;;4.30;2.20;;;16.20;76.50;;;;;;5139346;27;20279;-45
2022/07/07 03:34:37;;;;;;;2.80;2.50;;;16.30;76.70;;;;;;5138821;27;20249;-46
2022/07/07 03:37:03;;;;;;;3.10;2.80;;;16.30;75.90;;;;;;5137775;27;20440;-45
2022/07/07 03:39:29;;;;;;;3.10;2.10;;;16.30;75.00;;;;;;5137160;27;20200;-49
2022/07/07 03:41:54;;;;;;;2.73;2.27;;;16.20;75.90;;;;;;5116983;28;20539;-45
2022/07/07 03:44:20;;;;;;;3.47;2.30;;;16.20;76.50;;;;;;5126791;27;20196;-45
2022/07/07 03:46:46;;;;;;;2.70;2.27;;;16.20;75.50;;;;;;5137837;27;20188;-46
2022/07/07 03:49:11;;;;;;;3.40;2.40;;;16.20;75.70;;;;;;5137794;27;20270;-47
2022/07/07 03:51:37;;;;;;;4.07;2.90;;;16.00;76.30;;;;;;5137019;27;20192;-44
2022/07/07 03:54:03;;;;;;;3.33;2.70;;;15.90;76.80;;;;;;5138585;27;20642;-46
2022/07/07 03:56:29;;;;;;;3.07;2.77;;;15.90;77.10;;;;;;5138340;27;20198;-45
2022/07/07 03:58:55;;;;;;;3.90;2.80;;;15.80;78.40;;;;;;5137801;27;20686;-48
2022/07/07 04:01:20;;;;;;;2.63;2.30;;;15.80;78.50;;;;;;5136478;27;20188;-45
2022/07/07 04:03:46;;;;;;;5.43;2.80;;;15.80;78.50;;;;;;5136411;27;20208;-45
2022/07/07 04:06:12;;;;;;;2.90;2.60;;;15.90;77.10;;;;;;5137362;27;20176;-48
2022/07/07 04:08:37;;;;;;;4.00;3.10;;;16.00;77.00;;;;;;5136280;27;20182;-44
2022/07/07 04:11:03;;;;;;;3.43;2.87;;;16.00;77.70;;;;;;5136122;27;20214;-43
2022/07/07 04:13:28;;;;;;;2.50;2.30;;;16.10;77.20;;;;;;5137208;27;20180;-45
2022/07/07 04:15:56;;;;;;;3.03;2.40;;;16.10;76.40;;;;;;5136113;27;20267;-45
2022/07/07 04:18:21;;;;;;;4.33;2.50;;;16.10;77.00;;;;;;5136867;27;20663;-44
2022/07/07 04:20:47;;;;;;;2.67;2.47;;;16.20;77.00;;;;;;5118890;27;20425;-47
2022/07/07 04:23:12;;;;;;;3.77;2.73;;;16.20;76.80;;;;;;5138686;27;20180;-44
2022/07/07 04:25:38;;;;;;;3.33;2.30;;;16.30;76.80;;;;;;5138232;27;20183;-45
2022/07/07 04:28:04;;;;;;;3.00;2.63;;;16.40;76.80;;;;;;5138675;27;20207;-46
2022/07/07 04:30:29;;;;;;;4.50;3.07;;;16.40;76.40;;;;;;5120586;27;20259;-45
2022/07/07 04:32:55;;;;;;;4.87;2.83;;;16.40;75.60;;;;;;5137991;27;20223;-48
2022/07/07 04:35:21;;;;;;;4.27;2.87;;;16.30;75.50;;;;;;5137819;27;20219;-48
2022/07/07 04:37:46;;;;;;;3.03;2.77;;;16.10;76.00;;;;;;5137154;27;20184;-47
2022/07/07 04:40:12;;;;;;;4.67;2.80;;;16.00;76.80;;;;;;5137250;27;20191;-44
2022/07/07 04:42:38;;;;;;;3.30;2.90;;;15.90;77.80;;;;;;5137164;27;20199;-46
2022/07/07 04:45:04;;;;;;;3.90;3.03;;;15.80;78.30;;;;;;5137917;27;20185;-45
2022/07/07 04:47:29;;;;;;;3.70;2.77;;;15.80;78.60;;;;;;5137458;27;20264;-44
2022/07/07 04:49:55;;;;;;;4.50;3.17;;;15.70;78.80;;;;;;5137655;27;20441;-45
2022/07/07 04:52:21;;;;;;;5.90;2.77;;;15.70;79.10;;;;;;5135995;27;20253;-46
2022/07/07 04:54:46;;;;;;;3.73;3.00;;;15.70;79.20;;;;;;5136830;27;20268;-47
2022/07/07 04:57:12;;;;;;;3.37;3.07;;;15.70;79.70;;;;;;5136263;27;20265;-47
2022/07/07 04:59:40;;;;;;;4.57;2.93;;;15.60;79.60;;;;;;5135962;27;20185;-46
2022/07/07 05:02:06;;;;;;;4.07;2.47;;;15.50;79.90;;;;;;5135054;27;20231;-47
2022/07/07 05:04:32;;;;;;;3.33;2.40;;;15.60;81.40;;;;;;5136920;27;20591;-45
2022/07/07 05:06:57;;;;;;;3.40;3.10;;;15.60;82.40;;;;;;5135438;27;20214;-46
2022/07/07 05:09:23;;;;;;;2.97;2.67;;;15.60;81.00;;;;;;5133294;27;20575;-45
2022/07/07 05:11:49;;;;;;;2.73;2.43;;;15.60;80.10;;;;;;5133314;27;20187;-46
2022/07/07 05:14:16;;;;;;;4.67;2.80;;;15.60;79.90;;;;;;5114538;27;20212;-45
2022/07/07 05:16:43;;;;;;;3.17;2.87;;;15.60;79.40;;;;;;5133092;27;20592;-45
2022/07/07 05:19:09;;;;;;;3.03;2.40;;;15.60;79.70;;;;;;5132935;27;20501;-47
2022/07/07 05:21:35;;;;;;;3.33;2.87;;;15.70;79.40;;;;;;5134145;27;20876;-44
2022/07/07 05:24:00;;;;;;;2.83;2.60;;;15.70;79.20;;;;;;5115914;27;20935;-45
2022/07/07 05:26:26;;;;;;;4.30;2.67;;;15.80;79.30;;;;;;5114232;28;20472;-49
2022/07/07 05:28:51;;;;;;;2.83;2.40;;;15.80;79.00;;;;;;5113279;28;20188;-46
2022/07/07 05:31:17;;;;;;;2.50;2.30;;;15.80;78.30;;;;;;5131130;28;20411;-45
2022/07/07 05:33:43;;;;;;;3.00;2.67;;;15.80;78.50;;;;;;5113411;28;20565;-45
2022/07/07 05:36:09;;;;;;;2.50;2.30;;;15.90;78.60;;;;;;5134031;28;20580;-46
2022/07/07 05:38:35;;;;;;;5.63;2.40;;;15.90;78.20;;;;;;5135169;27;20245;-48
2022/07/07 05:41:01;;;;;;;4.10;2.90;;;16.00;77.90;;;;;;5134959;28;20449;-46
2022/07/07 05:43:27;;;;;;;2.80;2.40;;;16.10;77.30;;;;;;5132845;28;20533;-47
2022/07/07 05:45:53;;;;;;;4.50;3.03;;;16.20;76.80;;;;;;5133013;28;20433;-46
2022/07/07 05:48:19;;;;;;;4.37;3.10;;;16.20;76.60;;;;;;5130713;27;20436;-47
2022/07/07 05:50:45;;;;;;;4.20;2.50;;;16.30;76.40;;;;;;5130287;28;20434;-45
2022/07/07 05:53:11;;;;;;;3.27;2.60;;;16.40;76.20;;;;;;5129752;28;20184;-48
2022/07/07 05:55:37;;;;;;;2.50;2.30;;;16.50;75.70;;;;;;5132897;28;20243;-48
2022/07/07 05:58:02;;;;;;;3.47;2.60;;;16.60;75.60;;;;;;5120490;28;20422;-48
2022/07/07 06:00:28;;;;;;;5.23;2.27;;;16.50;75.60;;;;;;5131230;28;20450;-45
2022/07/07 06:02:54;;;;;;;3.20;2.50;;;16.70;75.60;;;;;;5129103;28;20187;-48
2022/07/07 06:05:20;;;;;;;3.13;2.40;;;16.90;74.80;;;;;;5130952;28;20330;-45
2022/07/07 06:07:46;;;;;;;2.80;2.50;;;17.00;74.20;;;;;;5131718;28;20283;-48
2022/07/07 06:10:15;;;;;;;2.67;2.47;;;17.10;73.80;;;;;;5131344;28;20523;-47
2022/07/07 06:12:42;;;;;;;2.80;2.60;;;17.30;73.50;;;;;;5132736;28;20195;-45
2022/07/07 06:15:08;;;;;;;5.00;2.50;;;17.40;73.30;;;;;;5132961;28;20469;-45
2022/07/07 06:17:34;;;;;;;4.90;3.40;;;17.60;72.70;;;;;;5115392;28;20429;-46
2022/07/07 06:20:00;;;;;;;4.10;2.17;;;17.70;71.40;;;;;;5150480;27;20476;-47
2022/07/07 06:22:26;;;;;;;3.43;2.87;;;17.90;71.70;;;;;;5156589;27;20400;-47
2022/07/07 06:24:52;;;;;;;2.90;2.37;;;17.90;71.80;;;;;;5153890;27;20278;-47
2022/07/07 06:27:18;;;;;;;3.80;2.30;;;18.10;71.60;;;;;;5134232;27;20443;-47
2022/07/07 06:29:44;;;;;;;2.50;1.90;;;18.20;70.60;;;;;;5153410;27;20421;-50
2022/07/07 06:32:10;;;;;;;4.37;2.50;;;18.30;69.70;;;;;;5153101;27;20760;-46
2022/07/07 06:34:36;;;;;;;15.37;4.70;;;18.40;69.70;;;;;;5154195;27;20537;-46
2022/07/07 06:37:02;;;;;;;6.80;3.10;;;18.60;69.50;;;;;;5138798;27;20835;-48
2022/07/07 06:39:27;;;;;;;12.73;3.37;;;18.80;69.20;;;;;;5123362;27;20198;-47
2022/07/07 06:41:53;;;;;;;3.97;2.17;;;19.00;68.10;;;;;;5141162;27;20191;-47
2022/07/07 06:44:19;;;;;;;2.33;2.13;;;19.20;67.00;;;;;;5159358;27;20194;-48
2022/07/07 06:46:44;;;;;;;6.63;2.43;;;19.20;66.70;;;;;;5158777;27;20187;-47
2022/07/07 06:49:10;;;;;;;3.77;2.53;;;19.20;66.90;;;;;;5158839;27;20173;-49
2022/07/07 06:51:35;;;;;;;3.70;2.47;;;19.30;66.50;;;;;;5158416;27;20191;-46
2022/07/07 06:54:01;;;;;;;3.90;2.63;;;19.30;66.10;;;;;;5159707;27;20199;-46
2022/07/07 06:56:27;;;;;;;7.57;2.60;;;19.20;66.20;;;;;;5159341;27;20203;-46
2022/07/07 06:58:52;;;;;;;5.80;3.43;;;19.40;66.60;;;;;;5159821;27;20184;-51
2022/07/07 07:01:18;;;;;;;5.60;2.40;;;19.50;66.20;;;;;;5160694;27;20256;-46
2022/07/07 07:03:44;;;;;;;4.37;2.50;;;19.70;65.60;;;;;;5141224;27;20184;-46
2022/07/07 07:06:10;;;;;;;4.57;2.50;;;19.60;65.00;;;;;;5157331;27;20576;-49
2022/07/07 07:08:35;;;;;;;2.80;2.43;;;19.60;65.60;;;;;;5139233;27;20210;-48
2022/07/07 07:11:02;;;;;;;2.90;2.60;;;19.70;65.90;;;;;;5157897;27;20441;-46
2022/07/07 07:13:28;;;;;;;6.73;2.70;;;19.90;65.00;;;;;;5156954;27;20576;-45
2022/07/07 07:15:53;;;;;;;3.40;2.50;;;20.10;64.30;;;;;;5156488;27;20557;-46
2022/07/07 07:18:19;;;;;;;5.13;2.77;;;20.20;64.50;;;;;;5155715;27;20254;-44
2022/07/07 07:20:44;;;;;;;2.43;2.20;;;20.20;63.90;;;;;;5156321;27;20180;-46
2022/07/07 07:23:10;;;;;;;5.83;2.57;;;20.30;63.50;;;;;;5137341;27;20285;-49
2022/07/07 07:25:36;;;;;;;5.03;2.30;;;20.30;63.30;;;;;;5158794;27;20630;-47
2022/07/07 07:28:02;;;;;;;7.23;2.37;;;20.40;63.60;;;;;;5140304;27;20433;-48
2022/07/07 07:30:27;;;;;;;3.60;2.30;;;20.50;63.80;;;;;;5139900;27;20288;-47
2022/07/07 07:32:53;;;;;;;3.73;2.60;;;20.60;63.40;;;;;;5158940;27;20260;-46
2022/07/07 07:35:19;;;;;;;3.10;2.63;;;20.60;63.40;;;;;;5159724;27;20255;-47
2022/07/07 07:37:44;;;;;;;6.10;2.23;;;20.50;63.10;;;;;;5158864;27;20213;-46
2022/07/07 07:40:11;;;;;;;6.60;2.80;;;20.70;63.90;;;;;;5139891;27;20179;-45
2022/07/07 07:42:38;;;;;;;3.27;2.13;;;21.10;62.80;;;;;;5155079;27;20409;-46
2022/07/07 07:45:14;;;;;;;3.90;2.70;;;21.10;62.40;;;;;;5139979;27;20772;-44
2022/07/07 07:47:44;;;;;;;4.90;2.87;;;21.30;62.20;;;;;;5156870;27;20433;-45
2022/07/07 07:50:13;;;;;;;5.10;3.00;;;21.10;62.30;;;;;;5155791;27;20509;-46
2022/07/07 07:52:40;;;;;;;7.67;2.57;;;21.00;63.30;;;;;;5157279;27;20833;-50
2022/07/07 07:55:07;;;;;;;6.50;2.70;;;21.30;64.10;;;;;;5155804;27;20643;-47
2022/07/07 07:57:32;;;;;;;3.83;2.90;;;21.40;63.90;;;;;;5156058;27;20744;-47
2022/07/07 07:59:58;;;;;;;5.23;3.60;;;21.60;62.20;;;;;;5156576;27;20409;-48
2022/07/07 08:02:24;;;;;;;3.80;2.90;;;21.60;61.80;;;;;;5137763;27;20453;-49
2022/07/07 08:04:50;;;;;;;3.20;2.70;;;21.30;61.90;;;;;;5155766;27;20562;-47
2022/07/07 08:07:16;;;;;;;6.43;3.10;;;21.30;62.30;;;;;;5157372;27;20208;-46
2022/07/07 08:09:41;;;;;;;6.57;3.23;;;21.00;62.80;;;;;;5157461;27;20175;-48
2022/07/07 08:12:07;;;;;;;5.50;4.10;;;20.90;63.40;;;;;;5157403;27;20410;-45
2022/07/07 08:14:33;;;;;;;9.23;4.27;;;20.70;64.40;;;;;;5136339;27;20232;-46
2022/07/07 08:16:58;;;;;;;11.47;4.10;;;20.50;65.30;;;;;;5154828;27;20199;-45
2022/07/07 08:19:24;;;;;;;15.73;4.10;;;20.50;65.60;;;;;;5153651;27;20549;-49
2022/07/07 08:21:50;;;;;;;3.67;3.20;;;20.50;66.50;;;;;;5136209;27;20184;-49
2022/07/07 08:24:17;;;;;;;5.43;3.13;;;20.50;66.40;;;;;;5155095;27;20466;-45
2022/07/07 08:26:43;;;;;;;7.00;3.37;;;20.40;66.50;;;;;;5153520;27;20423;-48
2022/07/07 08:29:08;;;;;;;5.07;3.50;;;20.20;67.30;;;;;;5156482;27;20430;-48
2022/07/07 08:31:34;;;;;;;9.07;4.70;;;20.10;67.70;;;;;;5156041;27;20416;-47
2022/07/07 08:34:00;;;;;;;12.53;3.80;;;19.80;69.10;;;;;;5157354;27;20271;-47
2022/07/07 08:36:25;;;;;;;4.27;3.63;;;19.60;69.00;;;;;;5156340;27;20177;-48
2022/07/07 08:38:51;;;;;;;9.10;4.00;;;19.50;69.90;;;;;;5153693;27;20676;-44
2022/07/07 08:41:17;;;;;;;12.97;5.20;;;19.30;70.50;;;;;;5153957;27;20195;-46
2022/07/07 08:43:43;;;;;;;6.93;3.40;;;19.40;70.90;;;;;;5153289;27;20180;-46
2022/07/07 08:46:09;;;;;;;5.67;4.20;;;19.40;70.70;;;;;;5154870;27;20187;-47
2022/07/07 08:48:35;;;;;;;8.60;5.20;;;19.40;71.30;;;;;;5156499;27;20900;-47
2022/07/07 08:51:01;;;;;;;5.07;4.33;;;19.60;71.00;;;;;;5155969;27;20592;-46
2022/07/07 08:53:37;;;;;;;4.70;4.20;;;19.90;70.80;;;;;;5155460;27;20426;-46
2022/07/07 08:56:06;;;;;;;4.37;4.00;;;20.00;70.90;;;;;;5155113;27;20726;-51
2022/07/07 08:58:32;;;;;;;9.80;5.10;;;20.20;70.50;;;;;;5138029;27;20830;-46
2022/07/07 09:00:58;;;;;;;6.83;4.53;;;20.40;70.40;;;;;;5155173;27;20528;-47
2022/07/07 09:03:26;;;;;;;11.50;6.20;;;20.70;70.20;;;;;;5154901;27;20516;-47
2022/07/07 09:05:52;;;;;;;9.13;4.60;;;21.10;69.00;;;;;;5156136;27;20438;-45
2022/07/07 09:08:20;;;;;;;4.80;4.33;;;21.20;68.40;;;;;;5136213;27;20572;-47
2022/07/07 09:10:46;;;;;;;14.07;5.43;;;21.40;68.40;;;;;;5154948;27;20730;-46
2022/07/07 09:13:25;;;;;;;12.87;5.30;;;21.50;68.40;;;;;;5153413;27;20412;-46
2022/07/07 09:15:52;;;;;;;8.70;5.40;;;21.30;69.00;;;;;;5154404;27;20706;-45
2022/07/07 09:18:39;;;;;;;6.20;5.60;;;21.40;70.00;;;;;;5154006;27;20417;-44
2022/07/07 09:21:25;;;;;;;7.70;5.90;;;21.60;68.40;;;;;;5155521;27;20426;-45
2022/07/07 09:23:53;;;;;;;6.77;6.17;;;22.00;68.90;;;;;;5157391;27;20424;-46
2022/07/07 09:26:37;;;;;;;6.27;5.70;;;22.00;67.90;;;;;;5156153;27;20421;-46
2022/07/07 09:29:13;;;;;;;6.47;5.10;;;22.30;68.70;;;;;;5154824;27;20426;-48
2022/07/07 09:31:53;;;;;;;6.67;5.90;;;22.30;68.20;;;;;;5154290;27;20418;-47
2022/07/07 09:34:21;;;;;;;5.83;3.20;;;23.00;67.40;;;;;;5153145;27;20456;-46
2022/07/07 09:39:48;;;;;;;3.53;3.23;;;23.20;65.80;;;;;;5153532;27;20419;-46
2022/07/07 09:42:33;;;;;;;2.70;2.30;;;22.80;66.60;;;;;;5136279;27;20949;-49
2022/07/07 09:45:07;;;;;;;3.57;2.67;;;22.40;68.20;;;;;;5154860;27;20454;-45
2022/07/07 09:47:33;;;;;;;3.33;2.50;;;22.10;68.70;;;;;;5152018;27;20441;-47
2022/07/07 09:50:00;;;;;;;3.03;2.67;;;21.80;70.10;;;;;;5151796;27;20438;-48
2022/07/07 09:52:26;;;;;;;3.40;2.83;;;21.40;70.90;;;;;;5152198;27;20183;-47
2022/07/07 09:54:52;;;;;;;6.07;3.40;;;20.80;72.30;;;;;;5153129;27;20832;-47
2022/07/07 09:57:21;;;;;;;3.60;3.30;;;20.30;74.20;;;;;;5150749;27;20495;-46
2022/07/07 09:59:47;;;;;;;4.47;3.50;;;20.20;75.10;;;;;;5151208;27;20519;-46
2022/07/07 10:02:22;;;;;;;4.10;3.30;;;20.10;75.80;;;;;;5151657;27;20880;-46
2022/07/07 10:04:51;;;;;;;3.80;3.40;;;20.10;76.60;;;;;;5154335;27;20431;-47
2022/07/07 10:07:19;;;;;;;4.23;3.30;;;20.30;76.40;;;;;;5155556;27;20413;-48
2022/07/07 10:09:44;;;;;;;4.97;3.53;;;20.40;76.40;;;;;;5134973;27;20450;-46
2022/07/07 10:12:11;;;;;;;4.47;4.07;;;20.40;76.20;;;;;;5136260;27;20504;-47
2022/07/07 10:14:44;;;;;;;4.03;3.63;;;20.40;76.00;;;;;;5155803;27;20208;-45
2022/07/07 10:17:10;;;;;;;4.50;4.10;;;20.30;76.40;;;;;;5118771;27;20509;-45
2022/07/07 10:19:36;;;;;;;4.77;4.37;;;20.50;75.30;;;;;;5136336;27;20549;-49
2022/07/07 10:22:03;;;;;;;13.00;5.00;;;20.60;74.90;;;;;;5136869;27;20544;-46
2022/07/07 10:24:35;;;;;;;8.33;5.40;;;20.80;74.60;;;;;;5154836;27;20195;-46
2022/07/07 10:27:03;;;;;;;9.30;4.43;;;21.30;73.90;;;;;;5156912;27;20406;-46
2022/07/07 10:29:35;;;;;;;9.83;4.83;;;21.90;72.40;;;;;;5154723;27;20730;-48
2022/07/07 10:32:00;;;;;;;4.77;4.37;;;22.40;69.50;;;;;;5155202;27;20420;-47
2022/07/07 10:34:28;;;;;;;14.37;5.00;;;22.00;69.10;;;;;;5155474;27;20455;-47
2022/07/07 10:37:04;;;;;;;4.50;3.90;;;21.60;69.90;;;;;;5153470;27;20325;-46
2022/07/07 10:39:36;;;;;;;5.00;3.70;;;21.10;71.00;;;;;;5157670;27;20413;-45
2022/07/07 10:42:04;;;;;;;3.87;3.57;;;20.90;71.00;;;;;;5154170;27;20414;-45
2022/07/07 10:44:36;;;;;;;19.33;4.10;;;20.80;71.90;;;;;;5153654;27;20426;-46
2022/07/07 10:47:24;;;;;;;6.70;3.80;;;20.90;72.90;;;;;;5151954;27;20508;-44
2022/07/07 10:53:29;;;;;;;3.63;2.97;;;21.00;71.60;;;;;;5155019;27;20400;-45
2022/07/07 10:55:57;;;;;;;3.90;3.27;;;20.70;73.10;;;;;;5148936;27;20470;-45
2022/07/07 10:58:58;;;;;;;3.60;3.00;;;20.80;73.50;;;;;;5150540;27;20427;-47
2022/07/07 11:01:29;;;;;;;5.90;4.40;;;21.00;73.20;;;;;;5156066;27;20493;-46
2022/07/07 11:03:55;;;;;;;6.60;4.30;;;20.90;73.50;;;;;;5156558;27;20499;-45
2022/07/07 11:06:21;;;;;;;3.20;2.90;;;21.00;73.60;;;;;;5157819;27;20686;-48
2022/07/07 11:08:59;;;;;;;8.40;4.20;;;20.90;73.20;;;;;;5148240;27;20408;-47
2022/07/07 11:11:26;;;;;;;8.20;4.10;;;20.80;74.30;;;;;;5145362;27;20414;-45
2022/07/07 11:14:10;;;;;;;6.13;3.37;;;20.80;74.30;;;;;;5135896;27;20912;-47
2022/07/07 11:16:39;;;;;;;8.37;3.00;;;20.80;75.00;;;;;;5137622;27;20940;-44
2022/07/07 11:19:06;;;;;;;7.80;3.70;;;20.90;74.80;;;;;;5135632;27;20477;-46
2022/07/07 11:21:36;;;;;;;5.87;3.00;;;20.90;75.20;;;;;;5135058;27;20685;-47
2022/07/07 11:24:02;;;;;;;6.23;3.13;;;21.00;75.80;;;;;;5134168;27;20688;-46
2022/07/07 11:26:28;;;;;;;4.50;3.17;;;21.00;75.10;;;;;;5135195;27;20417;-45
2022/07/07 11:28:58;;;;;;;3.40;2.30;;;21.00;75.10;;;;;;5137604;27;20426;-45
2022/07/07 11:31:27;;;;;;;6.80;2.70;;;21.00;75.20;;;;;;5133918;27;20836;-45
2022/07/07 11:33:54;;;;;;;8.53;2.90;;;21.10;74.70;;;;;;5132312;27;20880;-48
2022/07/07 11:36:25;;;;;;;4.73;2.57;;;21.30;74.30;;;;;;5115148;27;20467;-46
2022/07/07 11:38:59;;;;;;;6.03;2.40;;;21.40;73.10;;;;;;5131768;27;20424;-45
2022/07/07 11:41:41;;;;;;;4.83;2.40;;;21.40;72.50;;;;;;5129899;27;20410;-46
2022/07/07 11:44:20;;;;;;;2.70;2.50;;;21.40;71.50;;;;;;5146484;27;20502;-47
2022/07/07 11:46:55;;;;;;;8.07;2.50;;;21.10;71.90;;;;;;5153728;27;20598;-48
2022/07/07 11:49:21;;;;;;;3.77;2.27;;;20.80;71.20;;;;;;5154181;27;20430;-47
2022/07/07 11:51:48;;;;;;;4.87;2.77;;;20.70;72.00;;;;;;5144407;27;20444;-47
2022/07/07 11:54:14;;;;;;;7.67;4.00;;;20.40;72.90;;;;;;5145064;27;20429;-45
2022/07/07 11:56:40;;;;;;;12.00;3.00;;;20.50;73.10;;;;;;5135296;27;20439;-45
2022/07/07 11:59:07;;;;;;;6.40;2.63;;;20.60;73.50;;;;;;5133019;27;20424;-44
2022/07/07 12:01:38;;;;;;;4.20;2.83;;;20.80;72.90;;;;;;5136613;27;20190;-44
2022/07/07 12:04:16;;;;;;;4.07;2.80;;;20.90;72.60;;;;;;5141459;27;20922;-46
2022/07/07 12:06:44;;;;;;;4.10;3.07;;;21.10;72.10;;;;;;5130250;27;20428;-49
2022/07/07 12:09:10;;;;;;;2.87;2.60;;;21.20;72.00;;;;;;5133745;27;20413;-47
2022/07/07 12:11:40;;;;;;;4.17;2.70;;;20.90;71.70;;;;;;5140574;27;20432;-46
2022/07/07 12:14:07;;;;;;;4.87;2.60;;;20.90;72.40;;;;;;5138835;27;20753;-45
2022/07/07 12:16:52;;;;;;;4.10;2.80;;;20.90;72.40;;;;;;5131213;27;20445;-46
2022/07/07 12:19:18;;;;;;;3.60;2.97;;;20.80;72.50;;;;;;5132398;27;20814;-46
2022/07/07 12:21:49;;;;;;;3.40;3.07;;;20.70;72.70;;;;;;5131906;27;20422;-44
2022/07/07 12:24:22;;;;;;;3.10;2.80;;;20.80;72.70;;;;;;5131397;27;20375;-45
2022/07/07 12:26:51;;;;;;;3.53;2.70;;;21.00;71.90;;;;;;5132974;27;20415;-44
2022/07/07 12:29:18;;;;;;;3.00;2.80;;;21.10;70.90;;;;;;5132718;27;20411;-44
2022/07/07 12:31:44;;;;;;;3.63;3.33;;;21.20;70.40;;;;;;5134393;27;20422;-46
2022/07/07 12:34:11;;;;;;;6.20;3.67;;;21.10;70.40;;;;;;5130866;27;20418;-44
2022/07/07 12:36:39;;;;;;;3.93;3.00;;;20.80;71.50;;;;;;5131072;27;20556;-45
2022/07/07 12:39:05;;;;;;;6.60;3.77;;;20.80;72.50;;;;;;5133473;27;20420;-45
2022/07/07 12:41:33;;;;;;;3.07;2.67;;;20.70;72.80;;;;;;5139528;27;20855;-48
2022/07/07 12:44:18;;;;;;;7.50;3.00;;;20.60;72.30;;;;;;5139167;27;20184;-48
2022/07/07 12:46:45;;;;;;;2.77;2.53;;;20.80;72.00;;;;;;5154412;27;20751;-45
2022/07/07 12:49:12;;;;;;;8.23;4.40;;;20.90;71.70;;;;;;5154952;27;20691;-45
2022/07/07 12:51:40;;;;;;;8.87;3.60;;;20.80;71.80;;;;;;5155515;27;20418;-46
2022/07/07 12:54:06;;;;;;;8.80;3.87;;;20.80;72.20;;;;;;5154871;27;20723;-47